United Spirit — ELYB2 — position and weather

sailwx.info

Track history (hours):
 
Tides and Currents Weather Stations Pressure Air Temp Water Temp Dewpoint Dewpoint Depression Visibility Wind Speed Wind Dir Waves Ship Positions

United Spirit

Last reported at 2015-Apr-18 13:33 UTC. Time now 2015-Apr-19 22:56 UTC.
Position S 33°42' E 151°47'.

Type: Cargo ship. MMSI: 636011280.

Date/timePositionNaut miles runAvg speedWind from/ knotsBaromVisibWave heightAir tempDewpointWater temp
2015-Apr-18 13:33S 33°42' E 151°47'1111.5
2015-Apr-18 12:33S 33°31' E 151°53'1211.6
2015-Apr-18 11:33S 33°21' E 151°60'1211.7
2015-Apr-18 10:33S 33°12' E 152°07'1211.6
2015-Apr-18 09:33S 33°02' E 152°15'1111.3
2015-Apr-18 08:33S 32°53' E 152°23'1414.3
2015-Apr-18 07:33S 32°41' E 152°32'1818.3
2015-Apr-18 06:33S 32°25' E 152°42'1817.7
2015-Apr-18 05:33S 32°08' E 152°50'24916.6
2015-Apr-17 14:33S 28°03' E 153°44'1818.4
2015-Apr-17 13:33S 27°45' E 153°42'1918.6
2015-Apr-17 12:33S 27°27' E 153°41'1817.8
2015-Apr-17 11:33S 27°09' E 153°37'1716.8
2015-Apr-17 10:33S 26°53' E 153°32'1515.4
2015-Apr-17 09:33S 26°46' E 153°16'8 7.9
2015-Apr-17 08:33S 26°51' E 153°09'1515.0
2015-Apr-17 07:33S 27°04' E 153°18'1312.9
2015-Apr-17 06:33S 27°16' E 153°14'7 7.2
2015-Apr-17 05:31S 27°23' E 153°10'0 0.0
2015-Apr-17 04:31S 27°23' E 153°10'0 0.0
2015-Apr-17 03:31S 27°23' E 153°10'0 0.0
2015-Apr-17 02:31S 27°23' E 153°10'0 0.0
2015-Apr-17 01:31S 27°23' E 153°10'0 0.0
2015-Apr-17 00:31S 27°23' E 153°10'0 0.0
2015-Apr-16 23:31S 27°23' E 153°10'0 0.0
2015-Apr-16 22:28S 27°23' E 153°10'0 0.0
2015-Apr-16 21:31S 27°23' E 153°10'0 0.0
2015-Apr-16 20:31S 27°23' E 153°10'0 0.4
2015-Apr-16 19:33S 27°22' E 153°10'10 9.8
2015-Apr-16 18:33S 27°15' E 153°18'1312.7
2015-Apr-16 17:33S 27°03' E 153°16'1514.9
2015-Apr-16 16:33S 26°49' E 153°10'9 8.9
2015-Apr-16 15:33S 26°41' E 153°14'11 9.8
2015-Apr-16 14:24S 26°34' E 153°24'8 8.7
2015-Apr-16 13:28S 26°27' E 153°28'  
Track history (hours):
 
Tides and Currents Weather Stations Pressure Air Temp Water Temp Dewpoint Dewpoint Depression Visibility Wind Speed Wind Dir Waves Ship Positions

United Spirit

Last reported at 2015-Apr-18 13:33 UTC. Time now 2015-Apr-19 22:56 UTC.
Position S 33°42' E 151°47'.

Type: Cargo ship. MMSI: 636011280.

Date/timePositionNaut miles runAvg speedWind from/ knotsBaromVisibWave heightAir tempDewpointWater temp
2015-Apr-18 13:33S 33°42' E 151°47'1111.5
2015-Apr-18 12:33S 33°31' E 151°53'1211.6
2015-Apr-18 11:33S 33°21' E 151°60'1211.7
2015-Apr-18 10:33S 33°12' E 152°07'1211.6
2015-Apr-18 09:33S 33°02' E 152°15'1111.3
2015-Apr-18 08:33S 32°53' E 152°23'1414.3
2015-Apr-18 07:33S 32°41' E 152°32'1818.3
2015-Apr-18 06:33S 32°25' E 152°42'1817.7
2015-Apr-18 05:33S 32°08' E 152°50'24916.6
2015-Apr-17 14:33S 28°03' E 153°44'1818.4
2015-Apr-17 13:33S 27°45' E 153°42'1918.6
2015-Apr-17 12:33S 27°27' E 153°41'1817.8
2015-Apr-17 11:33S 27°09' E 153°37'1716.8
2015-Apr-17 10:33S 26°53' E 153°32'1515.4
2015-Apr-17 09:33S 26°46' E 153°16'8 7.9
2015-Apr-17 08:33S 26°51' E 153°09'1515.0
2015-Apr-17 07:33S 27°04' E 153°18'1312.9
2015-Apr-17 06:33S 27°16' E 153°14'7 7.2
2015-Apr-17 05:31S 27°23' E 153°10'0 0.0
2015-Apr-17 04:31S 27°23' E 153°10'0 0.0
2015-Apr-17 03:31S 27°23' E 153°10'0 0.0
2015-Apr-17 02:31S 27°23' E 153°10'0 0.0
2015-Apr-17 01:31S 27°23' E 153°10'0 0.0
2015-Apr-17 00:31S 27°23' E 153°10'0 0.0
2015-Apr-16 23:31S 27°23' E 153°10'0 0.0
2015-Apr-16 22:28S 27°23' E 153°10'0 0.0
2015-Apr-16 21:31S 27°23' E 153°10'0 0.0
2015-Apr-16 20:31S 27°23' E 153°10'0 0.4
2015-Apr-16 19:33S 27°22' E 153°10'10 9.8
2015-Apr-16 18:33S 27°15' E 153°18'1312.7
2015-Apr-16 17:33S 27°03' E 153°16'1514.9
2015-Apr-16 16:33S 26°49' E 153°10'9 8.9
2015-Apr-16 15:33S 26°41' E 153°14'11 9.8
2015-Apr-16 14:24S 26°34' E 153°24'8 8.7
2015-Apr-16 13:28S 26°27' E 153°28'  

Dump ship's entire track history